Time;durP1;ratioP1;P1;durP2;ratioP2;P2;SDS_P1;SDS_P2;PMS_P1;PMS_P2;Temp;Humidity;BMP_temperature;BMP_pressure;BME280_temperature;BME280_humidity;BME280_pressure;Samples;Min_cycle;Max_cycle;Signal;HPM_P1;HPM_P2
2023/01/02 00:00:36;;;;;;;1.65;1.40;;;17.20;48.30;;;;;;4961931;28;20163;-85
2023/01/02 00:03:02;;;;;;;1.50;1.27;;;17.20;48.30;;;;;;4945707;28;20582;-84
2023/01/02 00:05:28;;;;;;;1.55;1.45;;;17.20;48.40;;;;;;4945541;28;20172;-84
2023/01/02 00:07:54;;;;;;;1.40;1.30;;;17.20;48.30;;;;;;4977796;28;20224;-84
2023/01/02 00:10:19;;;;;;;1.52;1.40;;;17.10;48.40;;;;;;4961392;28;20153;-84
2023/01/02 00:12:46;;;;;;;1.90;1.30;;;17.20;48.40;;;;;;4977874;28;20186;-84
2023/01/02 00:15:12;;;;;;;1.65;1.50;;;17.10;48.40;;;;;;4961714;28;20192;-84
2023/01/02 00:17:38;;;;;;;1.48;1.38;;;17.10;48.40;;;;;;4977847;28;20590;-84
2023/01/02 00:20:04;;;;;;;1.33;1.20;;;17.20;48.30;;;;;;4961352;28;20151;-84
2023/01/02 00:22:30;;;;;;;1.52;1.25;;;17.20;48.40;;;;;;4945180;28;20538;-84
2023/01/02 00:24:56;;;;;;;1.88;1.35;;;17.20;48.40;;;;;;4961093;28;20188;-84
2023/01/02 00:27:23;;;;;;;1.48;1.38;;;17.20;48.40;;;;;;4961445;28;20176;-84
2023/01/02 00:29:49;;;;;;;1.60;1.50;;;17.10;48.30;;;;;;4961117;28;20158;-84
2023/01/02 00:32:15;;;;;;;1.60;1.50;;;17.10;48.40;;;;;;4977170;28;20156;-84
2023/01/02 00:34:41;;;;;;;1.48;1.38;;;17.10;48.30;;;;;;4977158;28;20230;-84
2023/01/02 00:37:07;;;;;;;2.50;1.70;;;17.10;48.40;;;;;;4961545;28;20718;-84
2023/01/02 00:39:33;;;;;;;1.50;1.40;;;17.10;48.40;;;;;;4977043;28;20250;-84
2023/01/02 00:41:58;;;;;;;1.63;1.48;;;17.10;48.40;;;;;;4960866;28;20164;-85
2023/01/02 00:44:24;;;;;;;1.63;1.52;;;17.10;48.40;;;;;;4977181;28;20188;-84
2023/01/02 00:46:49;;;;;;;1.50;1.40;;;17.10;48.30;;;;;;4994232;28;20230;-84
2023/01/02 00:49:15;;;;;;;1.30;1.20;;;17.10;48.40;;;;;;4944813;28;20171;-85
2023/01/02 00:51:41;;;;;;;1.55;1.40;;;17.10;48.40;;;;;;4945612;28;20729;-84
2023/01/02 00:54:07;;;;;;;1.50;1.40;;;17.10;48.40;;;;;;4944631;28;20578;-84
2023/01/02 00:56:32;;;;;;;1.42;1.23;;;17.10;48.50;;;;;;4961248;28;20168;-85
2023/01/02 00:58:58;;;;;;;1.60;1.50;;;17.10;48.40;;;;;;4961092;28;20247;-85
2023/01/02 01:01:24;;;;;;;1.40;1.30;;;17.10;48.50;;;;;;4960986;28;20156;-85
2023/01/02 01:03:49;;;;;;;1.67;1.50;;;17.10;48.40;;;;;;4961126;28;20191;-85
2023/01/02 01:06:15;;;;;;;1.50;1.40;;;17.10;48.50;;;;;;4960545;28;20163;-85
2023/01/02 01:08:41;;;;;;;1.52;1.35;;;17.10;48.40;;;;;;4960513;28;20212;-84
2023/01/02 01:11:07;;;;;;;1.50;1.30;;;17.10;48.40;;;;;;4976558;28;20176;-85
2023/01/02 01:13:33;;;;;;;1.42;1.30;;;17.10;48.40;;;;;;4976905;28;20168;-85
2023/01/02 01:16:04;;;;;;;1.48;1.38;;;17.10;48.40;;;;;;4993960;28;20591;-85
2023/01/02 01:18:29;;;;;;;1.48;1.38;;;17.10;48.40;;;;;;4976758;28;20157;-85
2023/01/02 01:20:55;;;;;;;1.60;1.50;;;17.10;48.50;;;;;;4976988;28;20258;-85
2023/01/02 01:23:22;;;;;;;1.40;1.30;;;17.00;48.40;;;;;;4944346;28;20211;-85
2023/01/02 01:25:48;;;;;;;1.40;1.30;;;17.00;48.40;;;;;;4976516;28;20179;-85
2023/01/02 01:28:14;;;;;;;1.67;1.50;;;17.10;48.40;;;;;;4976497;28;20187;-85
2023/01/02 01:30:39;;;;;;;1.38;1.27;;;17.00;48.50;;;;;;4960729;28;20188;-85
2023/01/02 01:33:05;;;;;;;2.30;1.70;;;17.00;48.40;;;;;;4976689;28;20152;-84
2023/01/02 01:35:32;;;;;;;1.85;1.38;;;17.00;48.40;;;;;;4960385;28;20243;-85
2023/01/02 01:37:58;;;;;;;2.05;1.50;;;17.00;48.40;;;;;;4960717;28;20615;-85
2023/01/02 01:40:24;;;;;;;1.70;1.50;;;17.00;48.40;;;;;;4963327;28;20187;-85
2023/01/02 01:42:49;;;;;;;1.50;1.40;;;17.00;48.40;;;;;;4980427;28;20604;-85
2023/01/02 01:45:16;;;;;;;1.50;1.40;;;17.00;48.50;;;;;;4980200;28;20163;-85
2023/01/02 01:47:58;;;;;;;1.70;1.60;;;17.00;48.40;;;;;;4948137;28;20164;-85
2023/01/02 01:50:26;;;;;;;2.22;1.55;;;17.00;48.40;;;;;;4966272;28;20167;-85
2023/01/02 01:52:58;;;;;;;1.70;1.60;;;17.10;48.50;;;;;;4964272;28;20611;-85
2023/01/02 01:55:32;;;;;;;1.52;1.40;;;17.00;48.50;;;;;;4980054;28;20163;-85
2023/01/02 01:58:01;;;;;;;1.45;1.33;;;17.00;48.40;;;;;;4965157;28;20186;-85
2023/01/02 02:00:27;;;;;;;1.60;1.50;;;17.00;48.50;;;;;;4964584;28;20155;-85
2023/01/02 02:02:56;;;;;;;1.83;1.50;;;17.00;48.50;;;;;;4963663;28;20152;-85
2023/01/02 02:05:23;;;;;;;1.50;1.33;;;17.00;48.50;;;;;;4980236;28;20152;-85
2023/01/02 02:08:10;;;;;;;1.63;1.50;;;17.00;48.50;;;;;;4963353;28;20278;-84
2023/01/02 02:10:37;;;;;;;1.58;1.48;;;17.00;48.50;;;;;;4982223;28;20164;-84
2023/01/02 02:13:03;;;;;;;1.38;1.27;;;16.90;48.50;;;;;;4980150;28;20172;-85
2023/01/02 02:15:50;;;;;;;1.63;1.50;;;17.00;48.50;;;;;;4947901;28;20160;-85
2023/01/02 02:18:40;;;;;;;1.77;1.67;;;17.00;48.50;;;;;;4997197;28;20625;-85
2023/01/02 02:21:25;;;;;;;2.33;1.70;;;17.00;48.50;;;;;;4981548;28;20601;-84
2023/01/02 02:24:20;;;;;;;1.63;1.52;;;17.00;48.50;;;;;;4997066;28;20271;-85
2023/01/02 02:27:06;;;;;;;1.77;1.50;;;17.00;48.50;;;;;;4996777;28;20184;-84
2023/01/02 02:30:10;;;;;;;1.63;1.38;;;17.00;48.50;;;;;;4979670;28;20164;-85
2023/01/02 02:33:04;;;;;;;1.58;1.45;;;17.00;48.60;;;;;;4979742;28;20160;-84
2023/01/02 02:35:48;;;;;;;1.48;1.38;;;17.00;48.50;;;;;;4979451;28;20167;-85
2023/01/02 02:38:30;;;;;;;1.75;1.50;;;17.00;48.60;;;;;;4979523;28;20172;-84
2023/01/02 02:41:22;;;;;;;1.80;1.38;;;17.00;48.50;;;;;;4981140;28;20162;-85
2023/01/02 02:43:56;;;;;;;1.83;1.58;;;17.00;48.60;;;;;;4965536;28;20277;-85
2023/01/02 02:46:45;;;;;;;1.80;1.55;;;17.00;48.50;;;;;;4964091;28;20152;-84
2023/01/02 02:49:50;;;;;;;2.78;1.80;;;17.00;48.60;;;;;;4952905;28;20164;-84
2023/01/02 02:52:30;;;;;;;1.50;1.40;;;17.00;48.50;;;;;;4984402;28;20613;-85
2023/01/02 02:55:06;;;;;;;1.70;1.40;;;16.90;48.40;;;;;;4948287;28;20199;-85
2023/01/02 02:57:32;;;;;;;1.73;1.63;;;17.00;48.50;;;;;;4963492;28;20159;-84
2023/01/02 02:59:57;;;;;;;1.88;1.70;;;17.00;48.50;;;;;;4947607;28;20164;-85
2023/01/02 03:02:23;;;;;;;1.73;1.38;;;17.00;48.50;;;;;;4963219;28;20178;-84
2023/01/02 03:04:52;;;;;;;1.42;1.33;;;17.00;48.50;;;;;;4962660;28;20230;-85
2023/01/02 03:07:38;;;;;;;1.83;1.60;;;17.00;48.60;;;;;;4978772;28;20148;-85
2023/01/02 03:10:30;;;;;;;1.33;1.23;;;17.00;48.60;;;;;;4962431;28;20255;-85
2023/01/02 03:13:22;;;;;;;1.70;1.60;;;16.90;48.50;;;;;;4962571;28;20555;-85
2023/01/02 03:16:04;;;;;;;1.77;1.30;;;17.00;48.60;;;;;;4968392;28;20164;-85
2023/01/02 03:18:37;;;;;;;1.50;1.40;;;16.90;48.50;;;;;;4963036;28;20262;-84
2023/01/02 03:21:12;;;;;;;1.38;1.27;;;16.90;48.50;;;;;;4962566;28;20171;-85
2023/01/02 03:23:43;;;;;;;2.08;1.70;;;16.90;48.50;;;;;;4962620;28;20234;-85
2023/01/02 03:26:10;;;;;;;1.65;1.45;;;17.00;48.60;;;;;;4947377;28;20211;-85
2023/01/02 03:28:36;;;;;;;1.40;1.30;;;16.90;48.60;;;;;;4962670;28;20169;-85
2023/01/02 03:31:02;;;;;;;1.70;1.50;;;16.90;48.50;;;;;;4962315;28;20243;-85
2023/01/02 03:33:30;;;;;;;1.73;1.60;;;16.90;48.60;;;;;;4962506;28;20290;-85
2023/01/02 03:35:59;;;;;;;1.83;1.60;;;16.90;48.60;;;;;;4961915;28;20710;-85
2023/01/02 03:38:43;;;;;;;1.85;1.63;;;16.80;48.60;;;;;;4962316;28;20156;-86
2023/01/02 03:41:13;;;;;;;1.67;1.58;;;16.90;48.60;;;;;;4962693;28;20534;-85
2023/01/02 03:43:39;;;;;;;1.50;1.40;;;16.90;48.60;;;;;;4946598;28;20560;-85
2023/01/02 03:46:30;;;;;;;1.77;1.48;;;16.90;48.60;;;;;;4946732;28;20164;-85
2023/01/02 03:49:00;;;;;;;1.63;1.42;;;16.90;48.70;;;;;;4965511;28;20164;-85
2023/01/02 03:51:26;;;;;;;1.63;1.50;;;16.90;48.60;;;;;;4962090;28;20153;-85
2023/01/02 03:53:52;;;;;;;1.60;1.45;;;16.90;48.60;;;;;;4961808;28;20195;-85
2023/01/02 03:56:40;;;;;;;2.17;1.70;;;17.00;48.70;;;;;;4962218;28;20164;-85
2023/01/02 03:59:40;;;;;;;2.15;1.70;;;16.90;48.60;;;;;;4979761;28;20164;-85
2023/01/02 04:02:14;;;;;;;1.60;1.48;;;16.90;48.70;;;;;;4977357;28;20211;-86
2023/01/02 04:04:57;;;;;;;1.65;1.50;;;16.90;48.60;;;;;;4945668;28;20297;-85
2023/01/02 04:07:29;;;;;;;1.50;1.40;;;16.90;48.60;;;;;;4949106;28;20163;-85
2023/01/02 04:09:55;;;;;;;1.58;1.38;;;16.80;48.60;;;;;;4983014;28;20207;-85
2023/01/02 04:12:22;;;;;;;1.30;1.20;;;16.90;48.60;;;;;;4982390;28;20160;-85
2023/01/02 04:14:51;;;;;;;1.90;1.63;;;16.90;48.60;;;;;;4982299;28;20260;-85
2023/01/02 04:17:17;;;;;;;1.80;1.50;;;16.90;48.60;;;;;;4964081;28;20263;-86
2023/01/02 04:19:46;;;;;;;1.60;1.50;;;16.80;48.60;;;;;;4961357;28;20187;-85
2023/01/02 04:22:16;;;;;;;2.25;1.58;;;16.90;48.70;;;;;;4962036;28;20251;-86
2023/01/02 04:24:42;;;;;;;1.83;1.60;;;16.90;48.70;;;;;;4977744;28;20184;-85
2023/01/02 04:27:12;;;;;;;1.58;1.38;;;16.90;48.70;;;;;;4945344;28;20164;-84
2023/01/02 04:29:38;;;;;;;1.80;1.60;;;16.80;48.60;;;;;;4961688;28;20152;-85
2023/01/02 04:32:12;;;;;;;1.60;1.50;;;16.90;48.60;;;;;;4978039;28;20225;-85
2023/01/02 04:34:39;;;;;;;1.58;1.48;;;16.90;48.70;;;;;;4961382;28;20155;-85
2023/01/02 04:37:06;;;;;;;1.50;1.40;;;16.80;48.60;;;;;;4946078;28;20164;-84
2023/01/02 04:39:33;;;;;;;2.08;1.60;;;16.90;48.60;;;;;;4960905;28;20172;-84
2023/01/02 04:41:59;;;;;;;1.63;1.45;;;16.90;48.70;;;;;;4945058;28;20164;-84
2023/01/02 04:44:25;;;;;;;1.45;1.33;;;16.90;48.70;;;;;;4961408;28;20196;-84
2023/01/02 04:46:50;;;;;;;1.40;1.30;;;16.90;48.70;;;;;;4960812;28;20211;-84
2023/01/02 04:49:16;;;;;;;1.83;1.63;;;16.90;48.70;;;;;;4944972;28;20191;-85
2023/01/02 04:51:42;;;;;;;1.73;1.60;;;16.90;48.60;;;;;;4961133;28;20160;-84
2023/01/02 04:54:10;;;;;;;1.50;1.40;;;16.90;48.60;;;;;;4960667;28;20591;-84
2023/01/02 04:56:35;;;;;;;1.35;1.25;;;16.90;48.70;;;;;;4945352;28;20207;-85
2023/01/02 04:59:01;;;;;;;1.50;1.40;;;16.90;48.70;;;;;;4994047;28;20159;-85
2023/01/02 05:01:26;;;;;;;1.83;1.60;;;16.80;48.70;;;;;;4945075;28;20227;-85
2023/01/02 05:03:52;;;;;;;1.65;1.45;;;16.80;48.70;;;;;;4993996;28;20261;-84
2023/01/02 05:06:18;;;;;;;1.50;1.40;;;16.80;48.70;;;;;;4994052;28;20239;-85
2023/01/02 05:08:43;;;;;;;1.45;1.30;;;16.80;48.70;;;;;;4944586;28;20223;-85
2023/01/02 05:11:14;;;;;;;1.80;1.30;;;16.80;48.70;;;;;;4976598;28;20631;-84
2023/01/02 05:13:40;;;;;;;1.77;1.58;;;16.80;48.70;;;;;;4944454;28;20168;-85
2023/01/02 05:16:06;;;;;;;1.98;1.52;;;16.80;48.70;;;;;;4944561;28;20160;-84
2023/01/02 05:18:32;;;;;;;1.52;1.42;;;16.80;48.70;;;;;;4945300;28;20171;-84
2023/01/02 05:21:00;;;;;;;2.05;1.58;;;16.90;48.70;;;;;;4994197;28;20164;-84
2023/01/02 05:26:10;;;;;;;1.70;1.60;;;16.80;48.70;;;;;;4964030;28;20152;-84
2023/01/02 05:28:36;;;;;;;1.58;1.35;;;16.80;48.70;;;;;;4944667;28;20634;-84
2023/01/02 05:31:01;;;;;;;2.13;1.60;;;16.80;48.70;;;;;;4960415;28;20167;-84
2023/01/02 05:33:27;;;;;;;1.85;1.50;;;16.80;48.70;;;;;;4960335;28;20160;-84
2023/01/02 05:35:53;;;;;;;1.67;1.52;;;16.80;48.70;;;;;;4993722;28;20164;-84
2023/01/02 05:38:19;;;;;;;1.95;1.60;;;16.80;48.70;;;;;;4944905;28;20175;-84
2023/01/02 05:40:45;;;;;;;1.60;1.38;;;16.70;48.70;;;;;;4993701;28;20501;-84
2023/01/02 05:43:11;;;;;;;1.60;1.50;;;16.80;48.70;;;;;;4944849;28;20223;-84
2023/01/02 05:45:36;;;;;;;1.48;1.38;;;16.80;48.70;;;;;;4960517;28;20184;-85
2023/01/02 05:48:02;;;;;;;2.17;1.70;;;16.80;48.70;;;;;;4944483;28;20219;-84
2023/01/02 05:50:28;;;;;;;1.50;1.40;;;16.80;48.70;;;;;;4960492;28;20164;-84
2023/01/02 05:52:55;;;;;;;1.67;1.50;;;16.80;48.70;;;;;;4944575;28;20512;-84
2023/01/02 05:55:20;;;;;;;1.70;1.23;;;16.80;48.70;;;;;;4944577;28;20263;-85
2023/01/02 05:57:46;;;;;;;1.73;1.48;;;16.80;48.70;;;;;;4976198;28;20239;-85
2023/01/02 06:00:12;;;;;;;1.90;1.67;;;16.80;48.70;;;;;;4960024;28;20175;-85
2023/01/02 06:02:39;;;;;;;2.03;1.65;;;16.80;48.70;;;;;;4960140;28;20177;-84
2023/01/02 06:05:05;;;;;;;1.63;1.50;;;16.80;48.70;;;;;;4960377;28;20199;-84
2023/01/02 06:07:31;;;;;;;1.70;1.50;;;16.80;48.70;;;;;;4944215;28;20164;-84
2023/01/02 06:09:58;;;;;;;1.50;1.40;;;16.80;48.70;;;;;;4975928;28;20247;-85
2023/01/02 06:12:23;;;;;;;1.70;1.40;;;16.80;48.70;;;;;;4943943;28;20184;-84
2023/01/02 06:14:49;;;;;;;2.08;1.42;;;16.80;48.70;;;;;;4944015;28;20686;-84
2023/01/02 06:17:15;;;;;;;1.98;1.45;;;16.80;48.80;;;;;;4975926;28;20183;-84
2023/01/02 06:19:40;;;;;;;2.05;1.60;;;16.90;48.80;;;;;;4975936;28;20160;-84
2023/01/02 06:22:06;;;;;;;1.58;1.40;;;16.80;48.80;;;;;;4976486;28;20186;-84
2023/01/02 06:24:33;;;;;;;1.55;1.25;;;16.70;48.70;;;;;;4959834;28;20192;-84
2023/01/02 06:26:58;;;;;;;1.55;1.30;;;16.80;48.80;;;;;;4962291;28;20531;-84
2023/01/02 06:29:24;;;;;;;1.70;1.42;;;16.80;48.70;;;;;;4963437;28;20239;-84
2023/01/02 06:31:50;;;;;;;1.98;1.60;;;16.80;48.70;;;;;;4947962;28;20176;-84
2023/01/02 06:34:16;;;;;;;1.88;1.67;;;16.80;48.70;;;;;;4947434;28;20168;-85
2023/01/02 06:36:42;;;;;;;1.80;1.50;;;16.80;48.70;;;;;;4979367;28;20538;-85
2023/01/02 06:39:07;;;;;;;1.40;1.30;;;16.80;48.80;;;;;;4963299;28;20248;-84
2023/01/02 06:41:33;;;;;;;1.83;1.55;;;16.80;48.80;;;;;;4947124;28;20271;-85
2023/01/02 06:43:59;;;;;;;1.30;1.20;;;16.80;48.80;;;;;;4979222;28;20251;-85
2023/01/02 06:46:25;;;;;;;1.77;1.50;;;16.80;48.70;;;;;;4964245;28;20168;-84
2023/01/02 06:48:50;;;;;;;1.80;1.60;;;16.80;48.70;;;;;;4963294;28;20616;-84
2023/01/02 06:51:18;;;;;;;1.60;1.50;;;16.80;48.70;;;;;;4947715;28;20172;-83
2023/01/02 06:53:45;;;;;;;1.73;1.58;;;16.80;48.60;;;;;;4963874;28;20175;-84
2023/01/02 06:56:11;;;;;;;1.38;1.20;;;16.90;48.60;;;;;;4963818;28;20247;-86
2023/01/02 06:58:39;;;;;;;1.45;1.30;;;16.90;48.60;;;;;;4946822;28;20180;-84
2023/01/02 07:01:07;;;;;;;1.55;1.45;;;16.90;48.60;;;;;;4962682;28;20186;-84
2023/01/02 07:03:33;;;;;;;1.73;1.40;;;16.80;48.60;;;;;;4946694;28;20597;-84
2023/01/02 07:06:00;;;;;;;1.30;1.20;;;16.80;48.70;;;;;;4946810;28;20263;-85
2023/01/02 07:08:26;;;;;;;1.55;1.27;;;16.80;48.70;;;;;;4962746;28;20693;-83
2023/01/02 07:10:52;;;;;;;1.48;1.38;;;16.80;48.70;;;;;;4963121;28;20160;-82
2023/01/02 07:13:17;;;;;;;1.90;1.70;;;16.90;48.60;;;;;;4979017;28;20184;-84
2023/01/02 07:15:43;;;;;;;1.38;1.27;;;16.90;48.70;;;;;;4979258;28;20164;-84
2023/01/02 07:18:09;;;;;;;1.48;1.38;;;16.90;48.70;;;;;;4962636;28;20251;-84
2023/01/02 07:20:34;;;;;;;1.83;1.52;;;16.90;48.60;;;;;;4996576;28;20247;-84
2023/01/02 07:23:00;;;;;;;2.03;1.40;;;16.90;48.70;;;;;;4978833;28;20152;-84
2023/01/02 07:25:26;;;;;;;1.42;1.33;;;16.90;48.60;;;;;;4978708;28;20164;-84
2023/01/02 07:27:51;;;;;;;1.38;1.27;;;16.90;48.60;;;;;;4962301;28;20288;-84
2023/01/02 07:30:17;;;;;;;1.48;1.38;;;16.90;48.50;;;;;;4962500;28;20607;-84
2023/01/02 07:32:43;;;;;;;1.52;1.20;;;17.00;48.30;;;;;;4962474;28;20164;-86
2023/01/02 07:35:10;;;;;;;1.30;1.20;;;17.10;48.10;;;;;;4963288;28;20227;-84
2023/01/02 07:37:35;;;;;;;2.17;1.30;;;17.20;48.00;;;;;;4978240;28;20641;-84
2023/01/02 07:40:01;;;;;;;1.33;1.23;;;17.20;47.80;;;;;;4963119;28;20200;-85
2023/01/02 07:42:27;;;;;;;1.27;1.17;;;17.30;47.70;;;;;;4963837;28;20187;-84
2023/01/02 07:44:52;;;;;;;3.30;1.60;;;17.30;47.60;;;;;;4996532;28;20198;-84
2023/01/02 07:47:18;;;;;;;2.08;1.10;;;17.40;47.50;;;;;;4947487;28;20175;-85
2023/01/02 07:49:44;;;;;;;7.40;1.42;;;17.40;47.40;;;;;;4963122;28;20169;-84
2023/01/02 07:52:12;;;;;;;2.65;1.30;;;17.30;47.40;;;;;;4963835;28;20160;-84
2023/01/02 07:54:38;;;;;;;5.00;1.35;;;17.40;47.50;;;;;;4963431;28;20176;-85
2023/01/02 07:57:04;;;;;;;3.70;1.50;;;17.50;47.40;;;;;;4963653;28;20210;-84
2023/01/02 07:59:45;;;;;;;3.90;1.30;;;17.40;47.20;;;;;;4982753;28;20612;-85
2023/01/02 08:02:11;;;;;;;3.53;1.55;;;17.50;47.30;;;;;;4936289;28;20179;-85
2023/01/02 08:04:37;;;;;;;2.10;1.30;;;17.50;47.30;;;;;;4945313;28;20193;-84
2023/01/02 08:07:08;;;;;;;4.65;1.50;;;17.50;47.20;;;;;;4929531;28;20172;-85
2023/01/02 08:09:37;;;;;;;2.75;1.23;;;17.50;47.40;;;;;;4944658;28;20269;-84
2023/01/02 08:12:03;;;;;;;3.72;1.27;;;17.50;47.60;;;;;;4944857;28;20157;-85
2023/01/02 08:14:29;;;;;;;2.78;1.40;;;17.50;47.50;;;;;;4928196;28;20264;-85
2023/01/02 08:16:54;;;;;;;3.20;1.55;;;17.50;47.40;;;;;;4959593;28;20161;-85
2023/01/02 08:19:20;;;;;;;6.40;1.88;;;17.60;47.30;;;;;;4928157;28;20173;-86
2023/01/02 08:21:47;;;;;;;2.50;1.30;;;17.60;47.30;;;;;;4946422;28;20161;-86
2023/01/02 08:24:14;;;;;;;4.45;1.20;;;17.60;47.30;;;;;;4944169;28;20192;-85
2023/01/02 08:26:40;;;;;;;3.08;1.17;;;17.60;47.30;;;;;;4929025;28;20219;-85
2023/01/02 08:29:08;;;;;;;5.82;1.50;;;17.60;47.30;;;;;;4961351;28;20153;-85
2023/01/02 08:31:33;;;;;;;3.47;1.30;;;17.60;47.40;;;;;;4944694;28;20157;-85
2023/01/02 08:34:00;;;;;;;5.97;1.30;;;17.60;47.40;;;;;;4929190;28;20184;-85
2023/01/02 08:36:26;;;;;;;2.75;1.40;;;17.60;47.40;;;;;;4945450;28;20621;-85
2023/01/02 08:38:52;;;;;;;5.07;1.40;;;17.60;47.30;;;;;;4927570;28;20173;-85
2023/01/02 08:41:32;;;;;;;4.25;1.60;;;17.60;47.40;;;;;;4927363;28;20171;-86
2023/01/02 08:43:58;;;;;;;4.47;1.33;;;17.60;47.40;;;;;;4942900;28;20202;-85
2023/01/02 08:46:25;;;;;;;2.55;1.30;;;17.70;47.40;;;;;;4928282;28;20161;-85
2023/01/02 08:48:51;;;;;;;4.65;1.30;;;17.70;47.50;;;;;;4944478;28;20573;-83
2023/01/02 08:51:17;;;;;;;2.90;1.20;;;17.70;47.30;;;;;;4942876;28;20190;-84
2023/01/02 08:53:42;;;;;;;3.58;1.20;;;17.70;47.40;;;;;;4941850;28;20227;-84
2023/01/02 08:56:27;;;;;;;3.38;1.17;;;17.70;47.30;;;;;;4942154;28;20157;-84
2023/01/02 08:59:00;;;;;;;2.60;1.20;;;17.80;47.30;;;;;;4958263;28;20164;-83
2023/01/02 09:01:28;;;;;;;4.90;1.52;;;17.70;47.30;;;;;;4958448;28;20172;-83
2023/01/02 09:03:54;;;;;;;3.70;1.20;;;17.80;47.30;;;;;;4942918;28;20180;-84
2023/01/02 09:06:23;;;;;;;4.75;1.10;;;17.70;47.30;;;;;;4942957;28;20247;-84
2023/01/02 09:08:51;;;;;;;1.80;1.20;;;17.80;47.30;;;;;;4927051;28;20712;-83
2023/01/02 09:11:21;;;;;;;3.40;1.15;;;17.80;47.40;;;;;;4929646;28;20184;-85
2023/01/02 09:13:47;;;;;;;5.30;1.50;;;17.80;47.40;;;;;;4927755;28;20184;-85
2023/01/02 09:16:13;;;;;;;2.28;1.30;;;17.80;47.40;;;;;;4975162;28;20683;-86
2023/01/02 09:18:39;;;;;;;3.95;1.48;;;17.80;47.40;;;;;;4957973;28;20157;-84
2023/01/02 09:21:04;;;;;;;6.70;1.30;;;17.80;47.40;;;;;;4942773;28;20161;-84
2023/01/02 09:23:31;;;;;;;6.68;1.25;;;17.80;47.40;;;;;;4926020;28;20207;-84
2023/01/02 09:25:59;;;;;;;2.92;1.20;;;17.80;47.60;;;;;;4926357;28;20169;-85
2023/01/02 09:28:25;;;;;;;4.20;1.30;;;17.80;47.40;;;;;;4958291;28;20236;-85
2023/01/02 09:30:50;;;;;;;1.85;1.00;;;17.80;47.50;;;;;;4926506;28;20203;-84
2023/01/02 09:33:16;;;;;;;2.45;1.13;;;17.80;48.10;;;;;;4957949;28;20153;-86
2023/01/02 09:35:42;;;;;;;5.07;1.38;;;17.80;47.50;;;;;;4942196;28;20173;-85
2023/01/02 09:38:07;;;;;;;5.30;1.30;;;17.80;47.50;;;;;;4957745;28;20168;-85
2023/01/02 09:40:34;;;;;;;3.55;1.40;;;17.90;47.60;;;;;;4957961;28;20157;-84
2023/01/02 09:43:00;;;;;;;6.93;1.48;;;17.80;47.50;;;;;;4957615;28;20548;-85
2023/01/02 09:45:26;;;;;;;3.35;1.33;;;17.80;47.50;;;;;;4925788;28;20239;-84
2023/01/02 09:47:53;;;;;;;5.70;1.20;;;17.80;47.60;;;;;;4941898;28;20163;-84
2023/01/02 09:50:25;;;;;;;1.95;1.00;;;17.80;47.60;;;;;;4944250;28;20643;-85
2023/01/02 09:52:54;;;;;;;2.97;0.88;;;17.80;47.60;;;;;;4927989;28;20169;-84
2023/01/02 09:55:45;;;;;;;3.92;1.10;;;17.80;47.50;;;;;;4945830;28;20192;-85
2023/01/02 09:58:21;;;;;;;2.17;1.15;;;17.90;47.60;;;;;;4931071;28;20165;-84
2023/01/02 10:01:25;;;;;;;0.95;0.88;;;17.90;47.60;;;;;;4930803;28;20172;-83
2023/01/02 10:04:28;;;;;;;4.25;1.30;;;17.90;47.60;;;;;;4915846;29;20214;-85
2023/01/02 10:07:07;;;;;;;5.40;1.20;;;17.90;47.60;;;;;;4903289;29;20189;-85
2023/01/02 10:09:48;;;;;;;1.83;1.05;;;17.80;47.50;;;;;;4887596;29;20298;-84
2023/01/02 10:12:23;;;;;;;3.10;1.00;;;17.90;47.60;;;;;;4905692;29;20167;-83
2023/01/02 10:14:59;;;;;;;4.05;1.17;;;17.90;47.50;;;;;;4890711;29;20178;-85
2023/01/02 10:17:28;;;;;;;2.28;0.90;;;17.90;47.50;;;;;;4904591;29;20234;-85
2023/01/02 10:20:07;;;;;;;1.98;0.93;;;17.90;47.50;;;;;;4907683;29;20182;-84
2023/01/02 10:22:41;;;;;;;1.95;1.10;;;17.90;47.60;;;;;;4893502;29;20184;-85
2023/01/02 10:25:18;;;;;;;2.53;0.85;;;17.90;47.60;;;;;;4908664;29;20647;-85
2023/01/02 10:27:48;;;;;;;1.10;1.00;;;17.90;47.60;;;;;;4907814;29;20657;-85
2023/01/02 10:30:25;;;;;;;1.20;0.70;;;17.90;47.60;;;;;;4904200;29;20187;-85
2023/01/02 10:33:18;;;;;;;2.83;0.98;;;17.90;47.60;;;;;;4886609;29;20162;-84
2023/01/02 10:35:46;;;;;;;4.53;1.20;;;17.90;47.60;;;;;;4956506;28;20187;-85
2023/01/02 10:38:15;;;;;;;2.67;1.00;;;17.90;47.60;;;;;;4945304;28;20496;-84
2023/01/02 10:40:48;;;;;;;1.90;0.80;;;17.90;47.60;;;;;;4928776;28;20173;-85
2023/01/02 10:43:14;;;;;;;1.27;1.05;;;18.00;47.70;;;;;;4903241;29;20610;-85
2023/01/02 10:45:40;;;;;;;1.83;0.90;;;17.90;47.60;;;;;;4888642;29;20311;-86
2023/01/02 10:48:07;;;;;;;2.30;0.98;;;17.90;47.60;;;;;;4887456;29;20664;-85
2023/01/02 10:50:37;;;;;;;3.63;1.00;;;17.80;47.60;;;;;;4872527;29;20194;-84
2023/01/02 10:53:06;;;;;;;4.72;1.00;;;18.00;47.60;;;;;;4872673;29;20186;-85
2023/01/02 10:55:37;;;;;;;1.48;1.02;;;17.90;47.50;;;;;;4903924;29;20167;-84
2023/01/02 10:58:05;;;;;;;1.05;0.95;;;18.00;47.50;;;;;;4888489;29;20213;-85
2023/01/02 11:00:41;;;;;;;0.90;0.80;;;18.00;47.60;;;;;;4872059;29;20631;-85
2023/01/02 11:03:19;;;;;;;2.35;1.02;;;18.00;47.60;;;;;;4872770;29;20645;-84
2023/01/02 11:05:52;;;;;;;1.52;1.17;;;18.00;47.70;;;;;;4873495;29;20270;-83
2023/01/02 11:08:20;;;;;;;1.50;0.85;;;18.00;47.70;;;;;;4872733;29;21870;-84
2023/01/02 11:10:48;;;;;;;1.65;1.00;;;18.00;47.60;;;;;;4871692;29;20170;-84
2023/01/02 11:13:15;;;;;;;1.67;0.80;;;18.00;47.70;;;;;;4878447;28;20167;-84
2023/01/02 11:15:55;;;;;;;1.52;0.90;;;18.00;47.50;;;;;;4960547;28;20727;-85
2023/01/02 11:18:26;;;;;;;1.10;0.80;;;18.00;47.60;;;;;;4929270;28;20625;-84
2023/01/02 11:20:54;;;;;;;1.00;0.90;;;18.00;47.60;;;;;;4945331;28;20148;-85
2023/01/02 11:23:22;;;;;;;1.88;0.90;;;18.00;47.70;;;;;;4944425;28;20172;-84
2023/01/02 11:25:50;;;;;;;1.63;1.00;;;18.10;47.80;;;;;;4959885;28;20204;-85
2023/01/02 11:28:19;;;;;;;1.23;0.98;;;18.00;47.60;;;;;;4977096;28;20153;-84
2023/01/02 11:30:46;;;;;;;1.25;1.00;;;18.00;47.60;;;;;;4960540;28;20167;-83
2023/01/02 11:33:19;;;;;;;1.42;0.80;;;18.00;47.70;;;;;;4943809;28;20153;-84
2023/01/02 11:35:50;;;;;;;1.10;0.90;;;18.00;47.70;;;;;;4944017;28;20176;-84
2023/01/02 11:38:19;;;;;;;3.72;1.00;;;18.00;48.20;;;;;;4945351;28;20173;-84
2023/01/02 11:40:52;;;;;;;1.10;0.98;;;18.00;47.70;;;;;;4944245;28;20243;-84
2023/01/02 11:45:54;;;;;;;2.72;0.70;;;18.00;47.60;;;;;;4961182;28;20244;-85
2023/01/02 11:48:21;;;;;;;3.95;0.90;;;18.00;47.60;;;;;;4959556;28;20642;-85
2023/01/02 11:50:46;;;;;;;1.55;0.90;;;18.00;47.60;;;;;;4927359;28;20297;-84
2023/01/02 11:53:20;;;;;;;1.52;1.02;;;18.00;47.60;;;;;;4944282;28;20300;-84
2023/01/02 11:55:55;;;;;;;1.70;0.90;;;18.00;47.70;;;;;;4928407;28;20247;-84
2023/01/02 11:58:31;;;;;;;0.80;0.73;;;18.00;47.70;;;;;;4943957;28;20168;-84
2023/01/02 12:01:25;;;;;;;0.80;0.75;;;18.00;47.70;;;;;;4929165;28;20243;-85
2023/01/02 12:03:51;;;;;;;1.30;0.77;;;18.00;47.70;;;;;;4944007;28;20196;-84
2023/01/02 12:06:38;;;;;;;1.33;0.80;;;18.00;47.70;;;;;;4945186;28;20191;-84
2023/01/02 12:09:10;;;;;;;1.80;0.90;;;18.00;47.80;;;;;;4948546;28;20255;-84
2023/01/02 12:11:52;;;;;;;0.80;0.75;;;18.00;47.70;;;;;;4930379;28;20597;-84
2023/01/02 12:14:36;;;;;;;0.80;0.70;;;18.00;47.80;;;;;;4962439;28;20200;-84
2023/01/02 12:17:07;;;;;;;0.70;0.60;;;18.00;47.90;;;;;;4931137;28;20658;-85
2023/01/02 12:20:03;;;;;;;0.98;0.77;;;18.00;47.90;;;;;;4960477;28;20173;-84
2023/01/02 12:22:48;;;;;;;1.98;0.80;;;18.00;47.90;;;;;;4931548;28;20165;-85
2023/01/02 12:25:48;;;;;;;0.80;0.80;;;18.00;48.00;;;;;;4975931;28;20184;-85
2023/01/02 12:28:34;;;;;;;0.50;0.50;;;18.00;48.00;;;;;;4959349;28;20208;-85
2023/01/02 12:31:16;;;;;;;0.70;0.70;;;18.00;47.90;;;;;;4929308;28;20592;-84
2023/01/02 12:34:00;;;;;;;0.77;0.77;;;18.00;47.90;;;;;;4943387;28;20172;-84
2023/01/02 12:36:44;;;;;;;1.15;0.73;;;18.00;47.90;;;;;;4959197;28;20188;-84
2023/01/02 12:39:34;;;;;;;1.50;0.70;;;18.00;47.80;;;;;;4958827;28;20598;-84
2023/01/02 12:42:16;;;;;;;1.60;0.70;;;18.10;47.90;;;;;;4888361;29;20249;-84
2023/01/02 12:44:53;;;;;;;1.65;0.75;;;18.10;47.80;;;;;;4902242;29;20187;-84
2023/01/02 12:47:36;;;;;;;1.00;0.70;;;18.10;48.50;;;;;;4870651;29;20162;-84
2023/01/02 12:50:17;;;;;;;0.80;0.70;;;18.10;47.90;;;;;;4871989;29;20525;-84
2023/01/02 12:53:12;;;;;;;1.00;0.70;;;18.10;47.80;;;;;;4887965;29;20167;-84
2023/01/02 12:55:57;;;;;;;0.55;0.55;;;18.10;47.80;;;;;;4886120;29;20173;-84
2023/01/02 12:58:47;;;;;;;1.30;0.80;;;18.10;47.80;;;;;;4901475;29;20171;-84
2023/01/02 13:01:37;;;;;;;0.70;0.70;;;18.10;47.80;;;;;;4903997;29;20166;-85
2023/01/02 13:04:18;;;;;;;3.85;0.77;;;18.10;47.90;;;;;;4888090;29;20191;-84
2023/01/02 13:07:18;;;;;;;0.85;0.50;;;18.10;47.90;;;;;;4873025;29;20217;-84
2023/01/02 13:09:45;;;;;;;0.82;0.60;;;18.10;47.90;;;;;;4901535;29;20310;-84
2023/01/02 13:12:13;;;;;;;0.70;0.70;;;18.10;48.00;;;;;;4878310;29;20181;-84